sensor_id;sensor_type;location;lat;lon;timestamp;temperature;humidity
10903;DHT22;5504;47.312;11.060;2023-01-31T00:00:49;3.80;72.40
10903;DHT22;5504;47.312;11.060;2023-01-31T00:03:14;3.80;72.90
10903;DHT22;5504;47.312;11.060;2023-01-31T00:05:40;3.80;73.40
10903;DHT22;5504;47.312;11.060;2023-01-31T00:08:06;3.80;73.80
10903;DHT22;5504;47.312;11.060;2023-01-31T00:10:31;3.70;73.90
10903;DHT22;5504;47.312;11.060;2023-01-31T00:12:57;3.70;73.80
10903;DHT22;5504;47.312;11.060;2023-01-31T00:15:23;3.70;74.10
10903;DHT22;5504;47.312;11.060;2023-01-31T00:17:48;3.70;74.00
10903;DHT22;5504;47.312;11.060;2023-01-31T00:20:14;3.60;73.70
10903;DHT22;5504;47.312;11.060;2023-01-31T00:22:40;3.60;73.80
10903;DHT22;5504;47.312;11.060;2023-01-31T00:25:06;3.60;73.40
10903;DHT22;5504;47.312;11.060;2023-01-31T00:27:32;3.70;72.80
10903;DHT22;5504;47.312;11.060;2023-01-31T00:29:58;3.60;72.60
10903;DHT22;5504;47.312;11.060;2023-01-31T00:32:23;3.70;72.30
10903;DHT22;5504;47.312;11.060;2023-01-31T00:34:52;3.60;72.70
10903;DHT22;5504;47.312;11.060;2023-01-31T00:37:19;3.60;72.40
10903;DHT22;5504;47.312;11.060;2023-01-31T00:39:45;3.30;73.10
10903;DHT22;5504;47.312;11.060;2023-01-31T00:42:10;3.20;72.10
10903;DHT22;5504;47.312;11.060;2023-01-31T00:44:36;3.20;71.50
10903;DHT22;5504;47.312;11.060;2023-01-31T00:47:02;3.20;71.10
10903;DHT22;5504;47.312;11.060;2023-01-31T00:49:27;3.20;71.10
10903;DHT22;5504;47.312;11.060;2023-01-31T00:51:53;3.20;71.80
10903;DHT22;5504;47.312;11.060;2023-01-31T00:54:19;3.40;70.70
10903;DHT22;5504;47.312;11.060;2023-01-31T00:56:44;3.40;69.70
10903;DHT22;5504;47.312;11.060;2023-01-31T00:59:10;3.50;70.40
10903;DHT22;5504;47.312;11.060;2023-01-31T01:01:36;3.40;69.60
10903;DHT22;5504;47.312;11.060;2023-01-31T01:04:03;3.50;70.80
10903;DHT22;5504;47.312;11.060;2023-01-31T01:06:28;3.50;69.50
10903;DHT22;5504;47.312;11.060;2023-01-31T01:08:55;3.40;70.40
10903;DHT22;5504;47.312;11.060;2023-01-31T01:11:29;3.50;70.20
10903;DHT22;5504;47.312;11.060;2023-01-31T01:13:56;3.50;70.30
10903;DHT22;5504;47.312;11.060;2023-01-31T01:16:24;3.50;70.30
10903;DHT22;5504;47.312;11.060;2023-01-31T01:18:50;3.50;69.90
10903;DHT22;5504;47.312;11.060;2023-01-31T01:21:24;3.50;70.00
10903;DHT22;5504;47.312;11.060;2023-01-31T01:23:51;3.40;69.50
10903;DHT22;5504;47.312;11.060;2023-01-31T01:26:23;3.60;69.50
10903;DHT22;5504;47.312;11.060;2023-01-31T01:28:53;3.70;69.20
10903;DHT22;5504;47.312;11.060;2023-01-31T01:31:20;3.60;69.30
10903;DHT22;5504;47.312;11.060;2023-01-31T01:33:46;3.20;69.70
10903;DHT22;5504;47.312;11.060;2023-01-31T01:36:14;3.20;70.30
10903;DHT22;5504;47.312;11.060;2023-01-31T01:38:42;3.40;69.60
10903;DHT22;5504;47.312;11.060;2023-01-31T01:41:09;3.60;70.20
10903;DHT22;5504;47.312;11.060;2023-01-31T01:43:55;3.50;70.00
10903;DHT22;5504;47.312;11.060;2023-01-31T01:46:40;3.50;70.00
10903;DHT22;5504;47.312;11.060;2023-01-31T01:49:21;3.50;69.10
10903;DHT22;5504;47.312;11.060;2023-01-31T01:51:49;3.70;69.00
10903;DHT22;5504;47.312;11.060;2023-01-31T01:54:21;3.60;69.40
10903;DHT22;5504;47.312;11.060;2023-01-31T01:56:50;3.60;69.10
10903;DHT22;5504;47.312;11.060;2023-01-31T01:59:44;3.70;69.20
10903;DHT22;5504;47.312;11.060;2023-01-31T02:02:08;3.70;69.00
10903;DHT22;5504;47.312;11.060;2023-01-31T02:04:36;3.70;68.90
10903;DHT22;5504;47.312;11.060;2023-01-31T02:07:03;3.70;69.00
10903;DHT22;5504;47.312;11.060;2023-01-31T02:09:31;3.70;68.20
10903;DHT22;5504;47.312;11.060;2023-01-31T02:11:58;3.80;68.10
10903;DHT22;5504;47.312;11.060;2023-01-31T02:14:24;3.80;68.00
10903;DHT22;5504;47.312;11.060;2023-01-31T02:16:50;3.80;67.90
10903;DHT22;5504;47.312;11.060;2023-01-31T02:22:35;3.50;69.00
10903;DHT22;5504;47.312;11.060;2023-01-31T02:31:09;3.30;68.90
10903;DHT22;5504;47.312;11.060;2023-01-31T02:34:13;3.20;69.50
10903;DHT22;5504;47.312;11.060;2023-01-31T02:39:39;2.60;70.10
10903;DHT22;5504;47.312;11.060;2023-01-31T02:42:14;2.70;71.10
10903;DHT22;5504;47.312;11.060;2023-01-31T02:50:29;2.70;69.50
10903;DHT22;5504;47.312;11.060;2023-01-31T02:55:59;2.50;70.60
10903;DHT22;5504;47.312;11.060;2023-01-31T02:59:11;2.50;70.90
10903;DHT22;5504;47.312;11.060;2023-01-31T03:01:40;2.40;71.10
10903;DHT22;5504;47.312;11.060;2023-01-31T03:04:10;2.40;70.40
10903;DHT22;5504;47.312;11.060;2023-01-31T03:09:06;2.40;70.80
10903;DHT22;5504;47.312;11.060;2023-01-31T03:11:44;2.20;71.00
10903;DHT22;5504;47.312;11.060;2023-01-31T03:22:59;2.10;71.70
10903;DHT22;5504;47.312;11.060;2023-01-31T03:25:28;1.90;71.80
10903;DHT22;5504;47.312;11.060;2023-01-31T03:27:58;1.90;72.80
10903;DHT22;5504;47.312;11.060;2023-01-31T03:33:07;1.50;73.30
10903;DHT22;5504;47.312;11.060;2023-01-31T03:35:38;1.50;73.40
10903;DHT22;5504;47.312;11.060;2023-01-31T03:38:16;1.50;73.30
10903;DHT22;5504;47.312;11.060;2023-01-31T03:40:55;1.40;73.40
10903;DHT22;5504;47.312;11.060;2023-01-31T03:46:28;1.10;74.10
10903;DHT22;5504;47.312;11.060;2023-01-31T03:48:57;1.10;74.10
10903;DHT22;5504;47.312;11.060;2023-01-31T03:51:27;1.20;74.50
10903;DHT22;5504;47.312;11.060;2023-01-31T03:53:58;1.20;74.50
10903;DHT22;5504;47.312;11.060;2023-01-31T03:56:51;1.20;73.90
10903;DHT22;5504;47.312;11.060;2023-01-31T03:59:21;1.20;73.80
10903;DHT22;5504;47.312;11.060;2023-01-31T04:01:50;0.90;74.70
10903;DHT22;5504;47.312;11.060;2023-01-31T04:04:33;0.80;75.20
10903;DHT22;5504;47.312;11.060;2023-01-31T04:07:01;0.70;75.70
10903;DHT22;5504;47.312;11.060;2023-01-31T04:09:28;0.70;76.00
10903;DHT22;5504;47.312;11.060;2023-01-31T04:11:53;0.70;76.00
10903;DHT22;5504;47.312;11.060;2023-01-31T04:14:23;0.70;75.80
10903;DHT22;5504;47.312;11.060;2023-01-31T04:16:49;0.70;75.80
10903;DHT22;5504;47.312;11.060;2023-01-31T04:19:15;0.60;76.00
10903;DHT22;5504;47.312;11.060;2023-01-31T04:21:40;0.60;76.30
10903;DHT22;5504;47.312;11.060;2023-01-31T04:24:06;0.40;76.30
10903;DHT22;5504;47.312;11.060;2023-01-31T04:26:34;0.30;76.90
10903;DHT22;5504;47.312;11.060;2023-01-31T04:28:59;0.10;77.20
10903;DHT22;5504;47.312;11.060;2023-01-31T04:31:25;0.10;78.10
10903;DHT22;5504;47.312;11.060;2023-01-31T04:33:51;0.30;77.90
10903;DHT22;5504;47.312;11.060;2023-01-31T04:36:16;0.30;77.20
10903;DHT22;5504;47.312;11.060;2023-01-31T04:38:42;0.40;76.60
10903;DHT22;5504;47.312;11.060;2023-01-31T04:41:08;0.20;76.50
10903;DHT22;5504;47.312;11.060;2023-01-31T04:43:33;0.10;77.50
10903;DHT22;5504;47.312;11.060;2023-01-31T04:45:59;0.30;77.10
10903;DHT22;5504;47.312;11.060;2023-01-31T04:48:25;0.50;75.90
10903;DHT22;5504;47.312;11.060;2023-01-31T04:50:50;0.50;75.00
10903;DHT22;5504;47.312;11.060;2023-01-31T04:53:16;0.40;75.40
10903;DHT22;5504;47.312;11.060;2023-01-31T04:55:42;0.30;76.20
10903;DHT22;5504;47.312;11.060;2023-01-31T04:58:07;0.40;75.70
10903;DHT22;5504;47.312;11.060;2023-01-31T05:00:33;0.50;75.80
10903;DHT22;5504;47.312;11.060;2023-01-31T05:02:59;0.60;74.90
10903;DHT22;5504;47.312;11.060;2023-01-31T05:05:25;0.90;73.70
10903;DHT22;5504;47.312;11.060;2023-01-31T05:07:51;1.10;71.80
10903;DHT22;5504;47.312;11.060;2023-01-31T05:10:17;1.30;71.10
10903;DHT22;5504;47.312;11.060;2023-01-31T05:12:42;1.10;71.50
10903;DHT22;5504;47.312;11.060;2023-01-31T05:15:08;1.20;72.00
10903;DHT22;5504;47.312;11.060;2023-01-31T05:17:36;1.00;72.70
10903;DHT22;5504;47.312;11.060;2023-01-31T05:20:02;0.80;73.40
10903;DHT22;5504;47.312;11.060;2023-01-31T05:22:28;0.40;74.60
10903;DHT22;5504;47.312;11.060;2023-01-31T05:24:54;0.30;74.80
10903;DHT22;5504;47.312;11.060;2023-01-31T05:27:19;0.00;75.80
10903;DHT22;5504;47.312;11.060;2023-01-31T05:29:45;-0.20;76.80
10903;DHT22;5504;47.312;11.060;2023-01-31T05:32:11;0.00;76.60
10903;DHT22;5504;47.312;11.060;2023-01-31T05:34:39;-0.30;76.80
10903;DHT22;5504;47.312;11.060;2023-01-31T05:37:04;-0.30;77.30
10903;DHT22;5504;47.312;11.060;2023-01-31T05:39:30;-0.10;77.40
10903;DHT22;5504;47.312;11.060;2023-01-31T05:41:57;-0.20;76.90
10903;DHT22;5504;47.312;11.060;2023-01-31T05:44:23;-0.30;77.40
10903;DHT22;5504;47.312;11.060;2023-01-31T05:46:48;-0.30;77.60
10903;DHT22;5504;47.312;11.060;2023-01-31T05:49:14;-0.40;77.80
10903;DHT22;5504;47.312;11.060;2023-01-31T05:51:40;-0.30;77.60
10903;DHT22;5504;47.312;11.060;2023-01-31T05:54:07;-0.20;77.20
10903;DHT22;5504;47.312;11.060;2023-01-31T05:56:33;-0.30;77.30
10903;DHT22;5504;47.312;11.060;2023-01-31T05:58:59;-0.30;77.00
10903;DHT22;5504;47.312;11.060;2023-01-31T06:01:28;-0.20;77.20
10903;DHT22;5504;47.312;11.060;2023-01-31T06:03:54;-0.30;77.10
10903;DHT22;5504;47.312;11.060;2023-01-31T06:06:19;-0.20;77.40
10903;DHT22;5504;47.312;11.060;2023-01-31T06:08:45;-0.20;77.10
10903;DHT22;5504;47.312;11.060;2023-01-31T06:11:12;-0.10;76.90
10903;DHT22;5504;47.312;11.060;2023-01-31T06:13:39;-0.10;77.10
10903;DHT22;5504;47.312;11.060;2023-01-31T06:16:08;-0.10;77.00
10903;DHT22;5504;47.312;11.060;2023-01-31T06:18:34;0.00;76.50
10903;DHT22;5504;47.312;11.060;2023-01-31T06:20:59;-0.10;76.40
10903;DHT22;5504;47.312;11.060;2023-01-31T06:23:25;-0.10;76.80
10903;DHT22;5504;47.312;11.060;2023-01-31T06:25:52;0.00;76.30
10903;DHT22;5504;47.312;11.060;2023-01-31T06:28:18;0.10;75.90
10903;DHT22;5504;47.312;11.060;2023-01-31T06:30:45;-0.20;76.20
10903;DHT22;5504;47.312;11.060;2023-01-31T06:33:11;-0.20;76.30
10903;DHT22;5504;47.312;11.060;2023-01-31T06:35:39;-0.10;76.20
10903;DHT22;5504;47.312;11.060;2023-01-31T06:38:06;-0.40;76.30
10903;DHT22;5504;47.312;11.060;2023-01-31T06:40:32;-0.60;76.90
10903;DHT22;5504;47.312;11.060;2023-01-31T06:43:00;-0.70;77.60
10903;DHT22;5504;47.312;11.060;2023-01-31T06:45:26;-0.50;77.50
10903;DHT22;5504;47.312;11.060;2023-01-31T06:47:51;-0.50;77.20
10903;DHT22;5504;47.312;11.060;2023-01-31T06:50:17;-0.60;77.90
10903;DHT22;5504;47.312;11.060;2023-01-31T06:52:43;-0.50;77.90
10903;DHT22;5504;47.312;11.060;2023-01-31T06:55:09;-0.40;77.50
10903;DHT22;5504;47.312;11.060;2023-01-31T06:57:35;-0.20;76.70
10903;DHT22;5504;47.312;11.060;2023-01-31T07:00:00;-0.40;76.60
10903;DHT22;5504;47.312;11.060;2023-01-31T07:02:26;-0.70;77.20
10903;DHT22;5504;47.312;11.060;2023-01-31T07:04:52;-0.60;77.80
10903;DHT22;5504;47.312;11.060;2023-01-31T07:07:17;-0.40;77.10
10903;DHT22;5504;47.312;11.060;2023-01-31T07:09:43;-0.40;77.00
10903;DHT22;5504;47.312;11.060;2023-01-31T07:12:09;-0.10;77.50
10903;DHT22;5504;47.312;11.060;2023-01-31T07:14:35;0.20;77.50
10903;DHT22;5504;47.312;11.060;2023-01-31T07:17:01;0.60;76.30
10903;DHT22;5504;47.312;11.060;2023-01-31T07:19:27;0.80;75.60
10903;DHT22;5504;47.312;11.060;2023-01-31T07:21:52;1.00;75.30
10903;DHT22;5504;47.312;11.060;2023-01-31T07:24:18;1.30;74.30
10903;DHT22;5504;47.312;11.060;2023-01-31T07:26:44;1.40;73.90
10903;DHT22;5504;47.312;11.060;2023-01-31T07:29:10;1.70;73.70
10903;DHT22;5504;47.312;11.060;2023-01-31T07:31:37;1.80;72.80
10903;DHT22;5504;47.312;11.060;2023-01-31T07:34:03;2.10;73.10
10903;DHT22;5504;47.312;11.060;2023-01-31T07:36:28;2.40;71.80
10903;DHT22;5504;47.312;11.060;2023-01-31T07:38:56;2.70;71.30
10903;DHT22;5504;47.312;11.060;2023-01-31T07:41:23;2.90;70.50
10903;DHT22;5504;47.312;11.060;2023-01-31T07:43:49;3.30;70.40
10903;DHT22;5504;47.312;11.060;2023-01-31T07:46:15;3.50;70.00
10903;DHT22;5504;47.312;11.060;2023-01-31T07:48:41;3.80;69.80
10903;DHT22;5504;47.312;11.060;2023-01-31T07:51:08;4.20;70.00
10903;DHT22;5504;47.312;11.060;2023-01-31T07:53:36;4.10;68.00
10903;DHT22;5504;47.312;11.060;2023-01-31T07:56:17;4.40;69.00
10903;DHT22;5504;47.312;11.060;2023-01-31T07:58:45;4.70;68.80
10903;DHT22;5504;47.312;11.060;2023-01-31T08:04:00;5.00;68.20
10903;DHT22;5504;47.312;11.060;2023-01-31T08:06:27;5.00;68.50
10903;DHT22;5504;47.312;11.060;2023-01-31T08:08:54;5.40;68.70
10903;DHT22;5504;47.312;11.060;2023-01-31T08:11:20;5.50;68.40
10903;DHT22;5504;47.312;11.060;2023-01-31T08:13:46;5.70;68.20
10903;DHT22;5504;47.312;11.060;2023-01-31T08:16:12;6.00;67.20
10903;DHT22;5504;47.312;11.060;2023-01-31T08:18:38;5.20;68.60
10903;DHT22;5504;47.312;11.060;2023-01-31T08:21:04;5.30;68.20
10903;DHT22;5504;47.312;11.060;2023-01-31T08:23:31;5.40;68.40
10903;DHT22;5504;47.312;11.060;2023-01-31T08:26:12;5.20;68.40
10903;DHT22;5504;47.312;11.060;2023-01-31T08:28:38;5.20;68.40
10903;DHT22;5504;47.312;11.060;2023-01-31T08:31:05;5.20;67.90
10903;DHT22;5504;47.312;11.060;2023-01-31T08:33:31;5.90;67.20
10903;DHT22;5504;47.312;11.060;2023-01-31T08:35:57;6.00;66.10
10903;DHT22;5504;47.312;11.060;2023-01-31T08:38:31;6.60;66.20
10903;DHT22;5504;47.312;11.060;2023-01-31T08:40:57;6.70;62.70
10903;DHT22;5504;47.312;11.060;2023-01-31T08:43:23;6.70;62.30
10903;DHT22;5504;47.312;11.060;2023-01-31T08:45:49;7.00;61.70
10903;DHT22;5504;47.312;11.060;2023-01-31T08:48:14;7.20;60.80
10903;DHT22;5504;47.312;11.060;2023-01-31T08:50:40;7.00;60.30
10903;DHT22;5504;47.312;11.060;2023-01-31T08:53:06;6.80;59.70
10903;DHT22;5504;47.312;11.060;2023-01-31T08:55:34;6.10;59.80
10903;DHT22;5504;47.312;11.060;2023-01-31T08:58:00;6.10;60.20
10903;DHT22;5504;47.312;11.060;2023-01-31T09:00:28;6.60;60.30
10903;DHT22;5504;47.312;11.060;2023-01-31T09:02:55;7.20;59.30
10903;DHT22;5504;47.312;11.060;2023-01-31T09:05:21;7.70;57.80
10903;DHT22;5504;47.312;11.060;2023-01-31T09:07:47;8.10;57.30
10903;DHT22;5504;47.312;11.060;2023-01-31T09:10:13;8.40;56.10
10903;DHT22;5504;47.312;11.060;2023-01-31T09:12:39;8.40;53.90
10903;DHT22;5504;47.312;11.060;2023-01-31T09:15:05;8.30;52.30
10903;DHT22;5504;47.312;11.060;2023-01-31T09:17:31;8.30;52.50
10903;DHT22;5504;47.312;11.060;2023-01-31T09:19:57;8.70;52.70
10903;DHT22;5504;47.312;11.060;2023-01-31T09:22:23;8.90;50.90
10903;DHT22;5504;47.312;11.060;2023-01-31T09:24:49;9.30;51.20
10903;DHT22;5504;47.312;11.060;2023-01-31T09:27:14;9.80;49.40
10903;DHT22;5504;47.312;11.060;2023-01-31T09:29:40;10.30;49.50
10903;DHT22;5504;47.312;11.060;2023-01-31T09:32:06;10.50;49.60
10903;DHT22;5504;47.312;11.060;2023-01-31T09:34:32;8.80;48.80
10903;DHT22;5504;47.312;11.060;2023-01-31T09:36:57;9.10;50.00
10903;DHT22;5504;47.312;11.060;2023-01-31T09:39:24;8.70;49.80
10903;DHT22;5504;47.312;11.060;2023-01-31T09:42:39;8.90;50.30
10903;DHT22;5504;47.312;11.060;2023-01-31T09:44:40;8.90;50.30
10903;DHT22;5504;47.312;11.060;2023-01-31T09:47:26;8.90;50.10
10903;DHT22;5504;47.312;11.060;2023-01-31T09:50:26;8.70;49.40
10903;DHT22;5504;47.312;11.060;2023-01-31T09:52:54;8.40;50.00
10903;DHT22;5504;47.312;11.060;2023-01-31T09:55:41;8.60;49.30
10903;DHT22;5504;47.312;11.060;2023-01-31T10:01:17;8.60;49.80
10903;DHT22;5504;47.312;11.060;2023-01-31T10:04:06;8.70;49.20
10903;DHT22;5504;47.312;11.060;2023-01-31T10:07:00;8.90;49.10
10903;DHT22;5504;47.312;11.060;2023-01-31T10:09:47;9.10;48.90
10903;DHT22;5504;47.312;11.060;2023-01-31T10:12:32;9.30;49.20
10903;DHT22;5504;47.312;11.060;2023-01-31T10:15:05;9.20;49.40
10903;DHT22;5504;47.312;11.060;2023-01-31T10:17:51;9.10;48.90
10903;DHT22;5504;47.312;11.060;2023-01-31T10:23:14;9.00;49.50
10903;DHT22;5504;47.312;11.060;2023-01-31T10:28:26;9.40;48.90
10903;DHT22;5504;47.312;11.060;2023-01-31T10:34:00;9.50;47.20
10903;DHT22;5504;47.312;11.060;2023-01-31T10:36:36;9.90;47.70
10903;DHT22;5504;47.312;11.060;2023-01-31T10:42:28;10.10;46.30
10903;DHT22;5504;47.312;11.060;2023-01-31T10:45:00;10.50;46.80
10903;DHT22;5504;47.312;11.060;2023-01-31T10:47:38;10.20;45.50
10903;DHT22;5504;47.312;11.060;2023-01-31T10:58:02;9.90;46.40
10903;DHT22;5504;47.312;11.060;2023-01-31T11:00:31;10.30;46.30
10903;DHT22;5504;47.312;11.060;2023-01-31T11:02:58;10.40;45.40
10903;DHT22;5504;47.312;11.060;2023-01-31T11:05:26;10.80;45.10
10903;DHT22;5504;47.312;11.060;2023-01-31T11:07:56;10.40;43.50
10903;DHT22;5504;47.312;11.060;2023-01-31T11:10:23;8.60;44.50
10903;DHT22;5504;47.312;11.060;2023-01-31T11:13:00;8.80;45.10
10903;DHT22;5504;47.312;11.060;2023-01-31T11:15:38;9.00;46.00
10903;DHT22;5504;47.312;11.060;2023-01-31T11:18:05;8.90;45.50
10903;DHT22;5504;47.312;11.060;2023-01-31T11:20:36;9.90;46.50
10903;DHT22;5504;47.312;11.060;2023-01-31T11:23:15;11.30;44.60
10903;DHT22;5504;47.312;11.060;2023-01-31T11:25:47;10.90;42.60
10903;DHT22;5504;47.312;11.060;2023-01-31T11:28:22;11.20;44.30
10903;DHT22;5504;47.312;11.060;2023-01-31T11:30:51;11.00;41.70
10903;DHT22;5504;47.312;11.060;2023-01-31T11:36:13;11.30;42.40
10903;DHT22;5504;47.312;11.060;2023-01-31T11:38:40;11.50;42.70
10903;DHT22;5504;47.312;11.060;2023-01-31T11:41:33;10.50;41.60
10903;DHT22;5504;47.312;11.060;2023-01-31T11:44:15;10.20;43.70
10903;DHT22;5504;47.312;11.060;2023-01-31T11:46:56;9.90;41.80
10903;DHT22;5504;47.312;11.060;2023-01-31T11:49:36;10.20;43.80
10903;DHT22;5504;47.312;11.060;2023-01-31T11:52:16;10.70;43.90
10903;DHT22;5504;47.312;11.060;2023-01-31T11:54:50;10.50;42.70
10903;DHT22;5504;47.312;11.060;2023-01-31T11:57:27;9.80;43.90
10903;DHT22;5504;47.312;11.060;2023-01-31T11:59:56;9.40;42.90
10903;DHT22;5504;47.312;11.060;2023-01-31T12:04:58;10.30;44.20
10903;DHT22;5504;47.312;11.060;2023-01-31T12:07:39;9.90;42.60
10903;DHT22;5504;47.312;11.060;2023-01-31T12:12:52;10.60;43.10
10903;DHT22;5504;47.312;11.060;2023-01-31T12:15:18;10.80;42.90
10903;DHT22;5504;47.312;11.060;2023-01-31T12:17:47;10.80;42.50
10903;DHT22;5504;47.312;11.060;2023-01-31T12:20:22;10.80;42.40
10903;DHT22;5504;47.312;11.060;2023-01-31T12:42:43;10.60;42.30
10903;DHT22;5504;47.312;11.060;2023-01-31T12:53:53;9.40;47.80
10903;DHT22;5504;47.312;11.060;2023-01-31T13:02:34;8.00;48.90
10903;DHT22;5504;47.312;11.060;2023-01-31T13:08:02;8.60;50.50
10903;DHT22;5504;47.312;11.060;2023-01-31T13:13:24;8.70;50.20
10903;DHT22;5504;47.312;11.060;2023-01-31T13:16:00;8.70;49.80
10903;DHT22;5504;47.312;11.060;2023-01-31T13:18:29;8.50;50.00
10903;DHT22;5504;47.312;11.060;2023-01-31T13:20:59;8.30;50.50
10903;DHT22;5504;47.312;11.060;2023-01-31T13:23:37;8.30;50.70
10903;DHT22;5504;47.312;11.060;2023-01-31T13:26:08;8.40;50.90
10903;DHT22;5504;47.312;11.060;2023-01-31T13:28:56;8.00;49.80
10903;DHT22;5504;47.312;11.060;2023-01-31T13:31:30;8.20;51.10
10903;DHT22;5504;47.312;11.060;2023-01-31T13:34:09;8.30;52.00
10903;DHT22;5504;47.312;11.060;2023-01-31T13:36:47;7.90;50.60
10903;DHT22;5504;47.312;11.060;2023-01-31T13:39:20;8.00;51.40
10903;DHT22;5504;47.312;11.060;2023-01-31T13:41:49;8.00;51.30
10903;DHT22;5504;47.312;11.060;2023-01-31T13:44:15;8.10;51.80
10903;DHT22;5504;47.312;11.060;2023-01-31T13:46:56;8.30;51.60
10903;DHT22;5504;47.312;11.060;2023-01-31T13:49:35;8.20;50.90
10903;DHT22;5504;47.312;11.060;2023-01-31T13:52:12;7.90;51.10
10903;DHT22;5504;47.312;11.060;2023-01-31T13:54:42;7.70;51.90
10903;DHT22;5504;47.312;11.060;2023-01-31T13:57:25;7.70;52.00
10903;DHT22;5504;47.312;11.060;2023-01-31T14:00:02;7.30;51.60
10903;DHT22;5504;47.312;11.060;2023-01-31T14:02:28;7.30;52.60
10903;DHT22;5504;47.312;11.060;2023-01-31T14:05:06;7.50;53.30
10903;DHT22;5504;47.312;11.060;2023-01-31T14:07:35;7.40;53.70
10903;DHT22;5504;47.312;11.060;2023-01-31T14:12:32;7.90;54.70
10903;DHT22;5504;47.312;11.060;2023-01-31T14:14:58;7.90;54.50
10903;DHT22;5504;47.312;11.060;2023-01-31T14:22:26;7.60;55.60
10903;DHT22;5504;47.312;11.060;2023-01-31T14:24:57;7.60;55.70
10903;DHT22;5504;47.312;11.060;2023-01-31T14:32:31;7.50;56.60
10903;DHT22;5504;47.312;11.060;2023-01-31T14:35:04;7.50;56.90
10903;DHT22;5504;47.312;11.060;2023-01-31T14:42:52;7.50;56.50
10903;DHT22;5504;47.312;11.060;2023-01-31T14:48:22;7.30;56.30
10903;DHT22;5504;47.312;11.060;2023-01-31T14:51:06;7.30;56.50
10903;DHT22;5504;47.312;11.060;2023-01-31T14:58:46;7.20;56.50
10903;DHT22;5504;47.312;11.060;2023-01-31T15:01:12;7.10;56.50
10903;DHT22;5504;47.312;11.060;2023-01-31T15:03:54;7.20;56.60
10903;DHT22;5504;47.312;11.060;2023-01-31T15:11:47;7.10;57.20
10903;DHT22;5504;47.312;11.060;2023-01-31T15:14:34;7.10;57.40
10903;DHT22;5504;47.312;11.060;2023-01-31T15:17:18;7.10;56.80
10903;DHT22;5504;47.312;11.060;2023-01-31T15:19:57;6.70;56.40
10903;DHT22;5504;47.312;11.060;2023-01-31T15:22:25;6.80;56.60
10903;DHT22;5504;47.312;11.060;2023-01-31T15:24:54;6.80;56.20
10903;DHT22;5504;47.312;11.060;2023-01-31T15:27:22;6.80;56.40
10903;DHT22;5504;47.312;11.060;2023-01-31T15:30:12;6.70;55.90
10903;DHT22;5504;47.312;11.060;2023-01-31T15:32:44;6.70;56.30
10903;DHT22;5504;47.312;11.060;2023-01-31T15:35:31;6.70;56.90
10903;DHT22;5504;47.312;11.060;2023-01-31T15:38:00;6.60;56.80
10903;DHT22;5504;47.312;11.060;2023-01-31T15:40:28;6.70;56.70
10903;DHT22;5504;47.312;11.060;2023-01-31T15:43:13;6.60;57.10
10903;DHT22;5504;47.312;11.060;2023-01-31T15:45:39;6.70;57.40
10903;DHT22;5504;47.312;11.060;2023-01-31T15:48:13;6.70;56.80
10903;DHT22;5504;47.312;11.060;2023-01-31T15:53:18;6.60;58.10
10903;DHT22;5504;47.312;11.060;2023-01-31T15:55:47;6.40;57.80
10903;DHT22;5504;47.312;11.060;2023-01-31T15:58:20;6.40;57.50
10903;DHT22;5504;47.312;11.060;2023-01-31T16:00:54;6.30;57.70
10903;DHT22;5504;47.312;11.060;2023-01-31T16:03:26;6.20;58.00
10903;DHT22;5504;47.312;11.060;2023-01-31T16:05:54;6.20;58.60
10903;DHT22;5504;47.312;11.060;2023-01-31T16:08:33;6.20;58.70
10903;DHT22;5504;47.312;11.060;2023-01-31T16:11:04;6.10;59.10
10903;DHT22;5504;47.312;11.060;2023-01-31T16:13:31;6.00;59.40
10903;DHT22;5504;47.312;11.060;2023-01-31T16:15:58;5.90;59.00
10903;DHT22;5504;47.312;11.060;2023-01-31T16:18:24;5.80;59.50
10903;DHT22;5504;47.312;11.060;2023-01-31T16:20:54;5.80;59.60
10903;DHT22;5504;47.312;11.060;2023-01-31T16:28:22;5.80;59.50
10903;DHT22;5504;47.312;11.060;2023-01-31T16:30:48;5.40;60.50
10903;DHT22;5504;47.312;11.060;2023-01-31T16:33:21;5.50;61.10
10903;DHT22;5504;47.312;11.060;2023-01-31T16:36:01;5.60;61.30
10903;DHT22;5504;47.312;11.060;2023-01-31T16:38:27;5.50;61.70
10903;DHT22;5504;47.312;11.060;2023-01-31T16:40:55;5.50;61.60
10903;DHT22;5504;47.312;11.060;2023-01-31T16:43:29;5.40;61.90
10903;DHT22;5504;47.312;11.060;2023-01-31T16:46:03;5.40;62.80
10903;DHT22;5504;47.312;11.060;2023-01-31T16:48:36;5.40;62.80
10903;DHT22;5504;47.312;11.060;2023-01-31T16:56:44;5.40;63.40
10903;DHT22;5504;47.312;11.060;2023-01-31T17:02:15;5.20;64.10
10903;DHT22;5504;47.312;11.060;2023-01-31T17:04:42;5.30;64.20
10903;DHT22;5504;47.312;11.060;2023-01-31T17:07:34;5.20;64.30
10903;DHT22;5504;47.312;11.060;2023-01-31T17:10:05;4.10;64.70
10903;DHT22;5504;47.312;11.060;2023-01-31T17:12:33;4.20;65.70
10903;DHT22;5504;47.312;11.060;2023-01-31T17:15:00;4.40;64.30
10903;DHT22;5504;47.312;11.060;2023-01-31T17:17:32;4.60;63.60
10903;DHT22;5504;47.312;11.060;2023-01-31T17:20:02;4.60;64.20
10903;DHT22;5504;47.312;11.060;2023-01-31T17:22:28;4.60;63.10
10903;DHT22;5504;47.312;11.060;2023-01-31T17:24:54;4.80;63.90
10903;DHT22;5504;47.312;11.060;2023-01-31T17:27:20;4.80;64.70
10903;DHT22;5504;47.312;11.060;2023-01-31T17:29:46;4.80;64.30
10903;DHT22;5504;47.312;11.060;2023-01-31T17:32:14;4.90;63.40
10903;DHT22;5504;47.312;11.060;2023-01-31T17:34:40;4.90;63.90
10903;DHT22;5504;47.312;11.060;2023-01-31T17:37:07;4.90;64.50
10903;DHT22;5504;47.312;11.060;2023-01-31T17:39:32;4.80;65.20
10903;DHT22;5504;47.312;11.060;2023-01-31T17:41:59;4.90;65.90
10903;DHT22;5504;47.312;11.060;2023-01-31T17:44:25;4.60;66.10
10903;DHT22;5504;47.312;11.060;2023-01-31T17:46:51;4.70;65.50
10903;DHT22;5504;47.312;11.060;2023-01-31T17:49:16;4.80;63.30
10903;DHT22;5504;47.312;11.060;2023-01-31T17:51:42;4.80;63.30
10903;DHT22;5504;47.312;11.060;2023-01-31T17:54:10;4.80;64.20
10903;DHT22;5504;47.312;11.060;2023-01-31T17:56:36;5.00;64.40
10903;DHT22;5504;47.312;11.060;2023-01-31T17:59:02;4.80;65.80
10903;DHT22;5504;47.312;11.060;2023-01-31T18:01:28;4.80;65.20
10903;DHT22;5504;47.312;11.060;2023-01-31T18:03:53;4.80;66.00
10903;DHT22;5504;47.312;11.060;2023-01-31T18:06:19;4.80;65.30
10903;DHT22;5504;47.312;11.060;2023-01-31T18:08:45;4.90;65.20
10903;DHT22;5504;47.312;11.060;2023-01-31T18:11:13;4.80;64.30
10903;DHT22;5504;47.312;11.060;2023-01-31T18:13:39;4.90;64.50
10903;DHT22;5504;47.312;11.060;2023-01-31T18:16:11;4.90;64.10
10903;DHT22;5504;47.312;11.060;2023-01-31T18:18:37;4.90;64.80
10903;DHT22;5504;47.312;11.060;2023-01-31T18:21:15;4.80;65.90
10903;DHT22;5504;47.312;11.060;2023-01-31T18:23:41;4.80;64.50
10903;DHT22;5504;47.312;11.060;2023-01-31T18:26:09;4.80;64.40
10903;DHT22;5504;47.312;11.060;2023-01-31T18:28:35;4.70;64.00
10903;DHT22;5504;47.312;11.060;2023-01-31T18:31:03;4.50;65.20
10903;DHT22;5504;47.312;11.060;2023-01-31T18:33:29;4.50;64.80
10903;DHT22;5504;47.312;11.060;2023-01-31T18:35:56;4.60;65.30
10903;DHT22;5504;47.312;11.060;2023-01-31T18:38:22;4.50;66.00